sensor_id;sensor_type;location;lat;lon;timestamp;P1;durP1;ratioP1;P2;durP2;ratioP2
56242;SDS011;42155;53.096;23.226;2022-08-24T00:01:19;19.75;;;5.13;;
56242;SDS011;42155;53.096;23.226;2022-08-24T00:03:20;21.58;;;5.45;;
56242;SDS011;42155;53.096;23.226;2022-08-24T00:05:21;21.60;;;5.47;;
56242;SDS011;42155;53.096;23.226;2022-08-24T00:07:21;25.73;;;6.00;;
56242;SDS011;42155;53.096;23.226;2022-08-24T00:09:22;22.05;;;5.45;;
56242;SDS011;42155;53.096;23.226;2022-08-24T00:11:22;19.95;;;5.72;;
56242;SDS011;42155;53.096;23.226;2022-08-24T00:13:23;22.90;;;6.25;;
56242;SDS011;42155;53.096;23.226;2022-08-24T00:15:23;24.23;;;5.97;;
56242;SDS011;42155;53.096;23.226;2022-08-24T00:17:23;21.65;;;5.78;;
56242;SDS011;42155;53.096;23.226;2022-08-24T00:19:24;23.63;;;5.22;;
56242;SDS011;42155;53.096;23.226;2022-08-24T00:21:25;19.65;;;5.40;;
56242;SDS011;42155;53.096;23.226;2022-08-24T00:23:25;21.27;;;5.72;;
56242;SDS011;42155;53.096;23.226;2022-08-24T00:25:26;17.73;;;4.68;;
56242;SDS011;42155;53.096;23.226;2022-08-24T00:27:26;25.60;;;5.80;;
56242;SDS011;42155;53.096;23.226;2022-08-24T00:29:26;21.80;;;6.00;;
56242;SDS011;42155;53.096;23.226;2022-08-24T00:31:27;19.92;;;5.47;;
56242;SDS011;42155;53.096;23.226;2022-08-24T00:33:27;22.70;;;6.22;;
56242;SDS011;42155;53.096;23.226;2022-08-24T00:35:27;25.73;;;5.80;;
56242;SDS011;42155;53.096;23.226;2022-08-24T00:37:28;21.67;;;5.30;;
56242;SDS011;42155;53.096;23.226;2022-08-24T00:39:28;20.92;;;5.18;;
56242;SDS011;42155;53.096;23.226;2022-08-24T00:41:29;17.33;;;4.90;;
56242;SDS011;42155;53.096;23.226;2022-08-24T00:43:29;22.75;;;5.70;;
56242;SDS011;42155;53.096;23.226;2022-08-24T00:45:32;25.80;;;5.68;;
56242;SDS011;42155;53.096;23.226;2022-08-24T00:47:39;20.13;;;5.28;;
56242;SDS011;42155;53.096;23.226;2022-08-24T00:49:53;13.48;;;4.35;;
56242;SDS011;42155;53.096;23.226;2022-08-24T00:54:09;16.92;;;5.78;;
56242;SDS011;42155;53.096;23.226;2022-08-24T00:56:16;29.67;;;6.10;;
56242;SDS011;42155;53.096;23.226;2022-08-24T00:58:21;22.52;;;5.25;;
56242;SDS011;42155;53.096;23.226;2022-08-24T01:00:30;16.73;;;4.70;;
56242;SDS011;42155;53.096;23.226;2022-08-24T01:02:43;16.45;;;4.78;;
56242;SDS011;42155;53.096;23.226;2022-08-24T01:04:51;22.58;;;5.18;;
56242;SDS011;42155;53.096;23.226;2022-08-24T01:06:55;19.40;;;4.90;;
56242;SDS011;42155;53.096;23.226;2022-08-24T01:08:56;19.63;;;5.22;;
56242;SDS011;42155;53.096;23.226;2022-08-24T01:10:58;19.85;;;5.15;;
56242;SDS011;42155;53.096;23.226;2022-08-24T01:13:01;20.98;;;5.60;;
56242;SDS011;42155;53.096;23.226;2022-08-24T01:15:04;20.33;;;5.28;;
56242;SDS011;42155;53.096;23.226;2022-08-24T01:17:06;15.60;;;5.20;;
56242;SDS011;42155;53.096;23.226;2022-08-24T01:19:50;19.38;;;5.32;;
56242;SDS011;42155;53.096;23.226;2022-08-24T01:24:15;27.50;;;6.60;;
56242;SDS011;42155;53.096;23.226;2022-08-24T01:26:16;26.65;;;6.60;;
56242;SDS011;42155;53.096;23.226;2022-08-24T01:28:21;21.58;;;5.68;;
56242;SDS011;42155;53.096;23.226;2022-08-24T01:30:21;23.75;;;5.60;;
56242;SDS011;42155;53.096;23.226;2022-08-24T01:32:23;24.13;;;5.20;;
56242;SDS011;42155;53.096;23.226;2022-08-24T01:34:25;29.42;;;6.15;;
56242;SDS011;42155;53.096;23.226;2022-08-24T01:36:31;26.45;;;6.00;;
56242;SDS011;42155;53.096;23.226;2022-08-24T01:38:34;20.38;;;5.63;;
56242;SDS011;42155;53.096;23.226;2022-08-24T01:40:37;25.02;;;6.10;;
56242;SDS011;42155;53.096;23.226;2022-08-24T01:42:49;26.77;;;6.10;;
56242;SDS011;42155;53.096;23.226;2022-08-24T01:44:51;21.05;;;5.60;;
56242;SDS011;42155;53.096;23.226;2022-08-24T01:46:52;29.50;;;6.70;;
56242;SDS011;42155;53.096;23.226;2022-08-24T01:48:54;24.90;;;5.82;;
56242;SDS011;42155;53.096;23.226;2022-08-24T01:50:56;20.95;;;5.47;;
56242;SDS011;42155;53.096;23.226;2022-08-24T01:52:56;32.15;;;6.15;;
56242;SDS011;42155;53.096;23.226;2022-08-24T01:54:59;24.00;;;6.53;;
56242;SDS011;42155;53.096;23.226;2022-08-24T01:57:00;42.70;;;7.00;;
56242;SDS011;42155;53.096;23.226;2022-08-24T01:59:01;19.63;;;6.53;;
56242;SDS011;42155;53.096;23.226;2022-08-24T02:01:02;26.50;;;5.63;;
56242;SDS011;42155;53.096;23.226;2022-08-24T02:03:03;31.02;;;7.07;;
56242;SDS011;42155;53.096;23.226;2022-08-24T02:05:03;29.85;;;5.55;;
56242;SDS011;42155;53.096;23.226;2022-08-24T02:07:04;27.48;;;6.05;;
56242;SDS011;42155;53.096;23.226;2022-08-24T02:09:05;27.83;;;6.13;;
56242;SDS011;42155;53.096;23.226;2022-08-24T02:11:06;31.85;;;6.70;;
56242;SDS011;42155;53.096;23.226;2022-08-24T02:13:08;31.40;;;6.18;;
56242;SDS011;42155;53.096;23.226;2022-08-24T02:15:08;31.25;;;6.85;;
56242;SDS011;42155;53.096;23.226;2022-08-24T02:17:09;30.52;;;6.63;;
56242;SDS011;42155;53.096;23.226;2022-08-24T02:19:09;31.13;;;6.55;;
56242;SDS011;42155;53.096;23.226;2022-08-24T02:21:10;25.50;;;5.97;;
56242;SDS011;42155;53.096;23.226;2022-08-24T02:23:11;21.98;;;5.82;;
56242;SDS011;42155;53.096;23.226;2022-08-24T02:25:12;31.08;;;5.60;;
56242;SDS011;42155;53.096;23.226;2022-08-24T02:27:13;28.13;;;6.28;;
56242;SDS011;42155;53.096;23.226;2022-08-24T02:29:13;26.80;;;5.80;;
56242;SDS011;42155;53.096;23.226;2022-08-24T02:31:14;21.90;;;5.53;;
56242;SDS011;42155;53.096;23.226;2022-08-24T02:33:14;28.67;;;5.55;;
56242;SDS011;42155;53.096;23.226;2022-08-24T02:35:15;27.88;;;6.15;;
56242;SDS011;42155;53.096;23.226;2022-08-24T02:37:16;24.30;;;6.15;;
56242;SDS011;42155;53.096;23.226;2022-08-24T02:39:16;29.42;;;5.78;;
56242;SDS011;42155;53.096;23.226;2022-08-24T02:41:17;29.60;;;6.68;;
56242;SDS011;42155;53.096;23.226;2022-08-24T02:43:17;25.65;;;6.22;;
56242;SDS011;42155;53.096;23.226;2022-08-24T02:45:17;26.65;;;6.10;;
56242;SDS011;42155;53.096;23.226;2022-08-24T02:47:18;23.50;;;5.78;;
56242;SDS011;42155;53.096;23.226;2022-08-24T02:49:19;26.48;;;5.50;;
56242;SDS011;42155;53.096;23.226;2022-08-24T02:51:23;21.85;;;5.80;;
56242;SDS011;42155;53.096;23.226;2022-08-24T02:53:25;31.83;;;5.82;;
56242;SDS011;42155;53.096;23.226;2022-08-24T02:55:26;23.02;;;5.40;;
56242;SDS011;42155;53.096;23.226;2022-08-24T02:57:26;25.67;;;5.95;;
56242;SDS011;42155;53.096;23.226;2022-08-24T02:59:26;28.13;;;5.53;;
56242;SDS011;42155;53.096;23.226;2022-08-24T03:01:27;24.05;;;5.97;;
56242;SDS011;42155;53.096;23.226;2022-08-24T03:03:28;29.20;;;7.07;;
56242;SDS011;42155;53.096;23.226;2022-08-24T03:05:28;36.97;;;6.72;;
56242;SDS011;42155;53.096;23.226;2022-08-24T03:07:29;25.02;;;5.70;;
56242;SDS011;42155;53.096;23.226;2022-08-24T03:09:29;28.73;;;5.97;;
56242;SDS011;42155;53.096;23.226;2022-08-24T03:11:30;31.77;;;6.60;;
56242;SDS011;42155;53.096;23.226;2022-08-24T03:13:30;34.97;;;6.20;;
56242;SDS011;42155;53.096;23.226;2022-08-24T03:15:31;38.97;;;6.50;;
56242;SDS011;42155;53.096;23.226;2022-08-24T03:17:31;46.78;;;7.13;;
56242;SDS011;42155;53.096;23.226;2022-08-24T03:19:31;44.63;;;7.90;;
56242;SDS011;42155;53.096;23.226;2022-08-24T03:21:32;30.05;;;6.22;;
56242;SDS011;42155;53.096;23.226;2022-08-24T03:23:32;32.30;;;7.35;;
56242;SDS011;42155;53.096;23.226;2022-08-24T03:25:32;40.50;;;6.22;;
56242;SDS011;42155;53.096;23.226;2022-08-24T03:27:33;41.92;;;6.90;;
56242;SDS011;42155;53.096;23.226;2022-08-24T03:29:33;39.95;;;7.57;;
56242;SDS011;42155;53.096;23.226;2022-08-24T03:31:34;34.60;;;7.25;;
56242;SDS011;42155;53.096;23.226;2022-08-24T03:33:34;32.30;;;7.22;;
56242;SDS011;42155;53.096;23.226;2022-08-24T03:35:35;29.13;;;6.47;;
56242;SDS011;42155;53.096;23.226;2022-08-24T03:37:35;33.92;;;6.18;;
56242;SDS011;42155;53.096;23.226;2022-08-24T03:39:36;41.03;;;6.97;;
56242;SDS011;42155;53.096;23.226;2022-08-24T03:41:36;36.67;;;6.18;;
56242;SDS011;42155;53.096;23.226;2022-08-24T03:43:37;42.55;;;7.32;;
56242;SDS011;42155;53.096;23.226;2022-08-24T03:45:38;41.88;;;7.60;;
56242;SDS011;42155;53.096;23.226;2022-08-24T03:47:38;27.38;;;6.57;;
56242;SDS011;42155;53.096;23.226;2022-08-24T03:49:39;38.67;;;5.93;;
56242;SDS011;42155;53.096;23.226;2022-08-24T03:51:40;25.80;;;5.68;;
56242;SDS011;42155;53.096;23.226;2022-08-24T03:53:41;39.15;;;6.78;;
56242;SDS011;42155;53.096;23.226;2022-08-24T03:55:41;35.10;;;6.95;;
56242;SDS011;42155;53.096;23.226;2022-08-24T03:57:41;40.28;;;6.85;;
56242;SDS011;42155;53.096;23.226;2022-08-24T03:59:42;36.80;;;6.82;;
56242;SDS011;42155;53.096;23.226;2022-08-24T04:01:42;40.60;;;7.90;;
56242;SDS011;42155;53.096;23.226;2022-08-24T04:03:43;37.83;;;7.38;;
56242;SDS011;42155;53.096;23.226;2022-08-24T04:05:45;39.03;;;7.03;;
56242;SDS011;42155;53.096;23.226;2022-08-24T04:07:45;44.42;;;7.50;;
56242;SDS011;42155;53.096;23.226;2022-08-24T04:09:46;31.30;;;6.60;;
56242;SDS011;42155;53.096;23.226;2022-08-24T04:11:46;38.40;;;7.65;;
56242;SDS011;42155;53.096;23.226;2022-08-24T04:13:46;51.55;;;8.75;;
56242;SDS011;42155;53.096;23.226;2022-08-24T04:15:47;42.42;;;7.32;;
56242;SDS011;42155;53.096;23.226;2022-08-24T04:17:50;40.83;;;7.35;;
56242;SDS011;42155;53.096;23.226;2022-08-24T04:19:50;48.33;;;7.93;;
56242;SDS011;42155;53.096;23.226;2022-08-24T04:21:51;39.50;;;7.30;;
56242;SDS011;42155;53.096;23.226;2022-08-24T04:23:52;41.60;;;7.50;;
56242;SDS011;42155;53.096;23.226;2022-08-24T04:25:53;45.72;;;6.97;;
56242;SDS011;42155;53.096;23.226;2022-08-24T04:27:53;45.63;;;7.50;;
56242;SDS011;42155;53.096;23.226;2022-08-24T04:29:53;61.72;;;9.00;;
56242;SDS011;42155;53.096;23.226;2022-08-24T04:31:54;37.22;;;8.32;;
56242;SDS011;42155;53.096;23.226;2022-08-24T04:33:54;52.40;;;7.85;;
56242;SDS011;42155;53.096;23.226;2022-08-24T04:35:54;60.75;;;8.82;;
56242;SDS011;42155;53.096;23.226;2022-08-24T04:37:55;54.47;;;6.97;;
56242;SDS011;42155;53.096;23.226;2022-08-24T04:39:55;55.70;;;8.50;;
56242;SDS011;42155;53.096;23.226;2022-08-24T04:41:55;54.45;;;7.95;;
56242;SDS011;42155;53.096;23.226;2022-08-24T04:43:56;55.15;;;8.40;;
56242;SDS011;42155;53.096;23.226;2022-08-24T04:45:56;58.53;;;8.68;;
56242;SDS011;42155;53.096;23.226;2022-08-24T04:47:56;63.08;;;9.35;;
56242;SDS011;42155;53.096;23.226;2022-08-24T04:49:57;66.85;;;9.52;;
56242;SDS011;42155;53.096;23.226;2022-08-24T04:51:57;58.03;;;8.50;;
56242;SDS011;42155;53.096;23.226;2022-08-24T04:53:57;59.97;;;9.38;;
56242;SDS011;42155;53.096;23.226;2022-08-24T04:55:58;57.80;;;8.40;;
56242;SDS011;42155;53.096;23.226;2022-08-24T04:57:58;56.55;;;8.80;;
56242;SDS011;42155;53.096;23.226;2022-08-24T04:59:59;61.50;;;9.45;;
56242;SDS011;42155;53.096;23.226;2022-08-24T05:01:59;72.18;;;9.68;;
56242;SDS011;42155;53.096;23.226;2022-08-24T05:04:00;58.53;;;8.27;;
56242;SDS011;42155;53.096;23.226;2022-08-24T05:06:01;56.35;;;9.13;;
56242;SDS011;42155;53.096;23.226;2022-08-24T05:08:02;69.93;;;9.23;;
56242;SDS011;42155;53.096;23.226;2022-08-24T05:10:03;62.95;;;9.10;;
56242;SDS011;42155;53.096;23.226;2022-08-24T05:12:06;52.90;;;8.50;;
56242;SDS011;42155;53.096;23.226;2022-08-24T05:14:07;74.47;;;9.73;;
56242;SDS011;42155;53.096;23.226;2022-08-24T05:16:08;60.42;;;9.07;;
56242;SDS011;42155;53.096;23.226;2022-08-24T05:18:11;61.80;;;8.35;;
56242;SDS011;42155;53.096;23.226;2022-08-24T05:20:12;55.65;;;8.20;;
56242;SDS011;42155;53.096;23.226;2022-08-24T05:22:12;67.82;;;9.73;;
56242;SDS011;42155;53.096;23.226;2022-08-24T05:24:13;57.65;;;9.23;;
56242;SDS011;42155;53.096;23.226;2022-08-24T05:26:17;58.88;;;9.13;;
56242;SDS011;42155;53.096;23.226;2022-08-24T05:28:23;66.28;;;9.43;;
56242;SDS011;42155;53.096;23.226;2022-08-24T05:30:23;65.50;;;9.00;;
56242;SDS011;42155;53.096;23.226;2022-08-24T05:32:23;62.58;;;9.85;;
56242;SDS011;42155;53.096;23.226;2022-08-24T05:34:24;57.05;;;9.30;;
56242;SDS011;42155;53.096;23.226;2022-08-24T05:36:28;61.38;;;9.30;;
56242;SDS011;42155;53.096;23.226;2022-08-24T05:38:31;73.25;;;9.95;;
56242;SDS011;42155;53.096;23.226;2022-08-24T05:40:32;64.57;;;9.82;;
56242;SDS011;42155;53.096;23.226;2022-08-24T05:42:32;56.85;;;9.48;;
56242;SDS011;42155;53.096;23.226;2022-08-24T05:44:32;54.00;;;9.05;;
56242;SDS011;42155;53.096;23.226;2022-08-24T05:46:33;63.72;;;9.05;;
56242;SDS011;42155;53.096;23.226;2022-08-24T05:48:34;75.55;;;10.13;;
56242;SDS011;42155;53.096;23.226;2022-08-24T05:50:34;71.68;;;9.10;;
56242;SDS011;42155;53.096;23.226;2022-08-24T05:52:34;65.10;;;9.18;;
56242;SDS011;42155;53.096;23.226;2022-08-24T05:54:35;68.80;;;10.15;;
56242;SDS011;42155;53.096;23.226;2022-08-24T05:56:35;76.95;;;11.15;;
56242;SDS011;42155;53.096;23.226;2022-08-24T05:58:35;65.80;;;10.18;;
56242;SDS011;42155;53.096;23.226;2022-08-24T06:00:36;62.15;;;9.35;;
56242;SDS011;42155;53.096;23.226;2022-08-24T06:02:37;65.32;;;9.93;;
56242;SDS011;42155;53.096;23.226;2022-08-24T06:04:37;66.57;;;9.40;;
56242;SDS011;42155;53.096;23.226;2022-08-24T06:06:37;58.95;;;9.25;;
56242;SDS011;42155;53.096;23.226;2022-08-24T06:08:39;64.90;;;9.40;;
56242;SDS011;42155;53.096;23.226;2022-08-24T06:10:42;66.97;;;9.40;;
56242;SDS011;42155;53.096;23.226;2022-08-24T06:12:44;57.78;;;9.75;;
56242;SDS011;42155;53.096;23.226;2022-08-24T06:14:45;59.22;;;9.93;;
56242;SDS011;42155;53.096;23.226;2022-08-24T06:16:46;64.22;;;9.93;;
56242;SDS011;42155;53.096;23.226;2022-08-24T06:18:47;65.97;;;10.80;;
56242;SDS011;42155;53.096;23.226;2022-08-24T06:20:47;69.20;;;9.70;;
56242;SDS011;42155;53.096;23.226;2022-08-24T06:22:48;74.55;;;10.40;;
56242;SDS011;42155;53.096;23.226;2022-08-24T06:24:48;63.28;;;9.45;;
56242;SDS011;42155;53.096;23.226;2022-08-24T06:26:48;66.90;;;9.20;;
56242;SDS011;42155;53.096;23.226;2022-08-24T06:28:49;60.70;;;9.73;;
56242;SDS011;42155;53.096;23.226;2022-08-24T06:30:49;62.30;;;10.27;;
56242;SDS011;42155;53.096;23.226;2022-08-24T06:32:50;77.60;;;11.10;;
56242;SDS011;42155;53.096;23.226;2022-08-24T06:34:53;64.47;;;9.77;;
56242;SDS011;42155;53.096;23.226;2022-08-24T06:36:55;65.28;;;9.02;;
56242;SDS011;42155;53.096;23.226;2022-08-24T06:38:55;53.03;;;8.85;;
56242;SDS011;42155;53.096;23.226;2022-08-24T06:40:56;64.20;;;9.07;;
56242;SDS011;42155;53.096;23.226;2022-08-24T06:42:59;70.70;;;9.35;;
56242;SDS011;42155;53.096;23.226;2022-08-24T06:45:01;63.88;;;8.88;;
56242;SDS011;42155;53.096;23.226;2022-08-24T06:47:01;60.30;;;8.68;;
56242;SDS011;42155;53.096;23.226;2022-08-24T06:49:02;69.45;;;8.95;;
56242;SDS011;42155;53.096;23.226;2022-08-24T06:51:07;61.08;;;9.35;;
56242;SDS011;42155;53.096;23.226;2022-08-24T06:53:09;61.25;;;10.18;;
56242;SDS011;42155;53.096;23.226;2022-08-24T06:55:09;62.40;;;9.57;;
56242;SDS011;42155;53.096;23.226;2022-08-24T06:57:10;57.47;;;9.40;;
56242;SDS011;42155;53.096;23.226;2022-08-24T06:59:10;59.13;;;8.90;;
56242;SDS011;42155;53.096;23.226;2022-08-24T07:01:12;58.92;;;8.80;;
56242;SDS011;42155;53.096;23.226;2022-08-24T07:03:14;57.25;;;8.93;;
56242;SDS011;42155;53.096;23.226;2022-08-24T07:05:15;67.15;;;10.18;;
56242;SDS011;42155;53.096;23.226;2022-08-24T07:07:16;64.82;;;9.60;;
56242;SDS011;42155;53.096;23.226;2022-08-24T07:09:16;57.03;;;8.60;;
56242;SDS011;42155;53.096;23.226;2022-08-24T07:11:17;52.00;;;8.52;;
56242;SDS011;42155;53.096;23.226;2022-08-24T07:13:18;57.60;;;9.15;;
56242;SDS011;42155;53.096;23.226;2022-08-24T07:15:18;64.90;;;9.40;;
56242;SDS011;42155;53.096;23.226;2022-08-24T07:17:18;66.35;;;10.25;;
56242;SDS011;42155;53.096;23.226;2022-08-24T07:19:19;65.88;;;10.13;;
56242;SDS011;42155;53.096;23.226;2022-08-24T07:21:19;60.65;;;8.98;;
56242;SDS011;42155;53.096;23.226;2022-08-24T07:23:20;73.43;;;10.43;;
56242;SDS011;42155;53.096;23.226;2022-08-24T07:25:20;59.13;;;8.70;;
56242;SDS011;42155;53.096;23.226;2022-08-24T07:27:21;57.38;;;7.85;;
56242;SDS011;42155;53.096;23.226;2022-08-24T07:29:21;62.50;;;8.57;;
56242;SDS011;42155;53.096;23.226;2022-08-24T07:31:21;59.83;;;9.07;;
56242;SDS011;42155;53.096;23.226;2022-08-24T07:33:22;60.55;;;8.70;;
56242;SDS011;42155;53.096;23.226;2022-08-24T07:35:22;66.88;;;9.20;;
56242;SDS011;42155;53.096;23.226;2022-08-24T07:37:27;62.05;;;8.98;;
56242;SDS011;42155;53.096;23.226;2022-08-24T07:39:27;72.28;;;9.73;;
56242;SDS011;42155;53.096;23.226;2022-08-24T07:41:28;62.20;;;9.73;;
56242;SDS011;42155;53.096;23.226;2022-08-24T07:43:28;56.50;;;8.65;;
56242;SDS011;42155;53.096;23.226;2022-08-24T07:45:29;63.60;;;9.15;;
56242;SDS011;42155;53.096;23.226;2022-08-24T07:47:29;58.80;;;8.93;;
56242;SDS011;42155;53.096;23.226;2022-08-24T07:49:29;60.92;;;9.15;;
56242;SDS011;42155;53.096;23.226;2022-08-24T07:51:30;67.57;;;10.45;;
56242;SDS011;42155;53.096;23.226;2022-08-24T07:53:30;61.58;;;9.00;;
56242;SDS011;42155;53.096;23.226;2022-08-24T07:55:31;65.95;;;9.65;;
56242;SDS011;42155;53.096;23.226;2022-08-24T07:57:31;64.43;;;9.90;;
56242;SDS011;42155;53.096;23.226;2022-08-24T07:59:33;58.70;;;9.00;;
56242;SDS011;42155;53.096;23.226;2022-08-24T08:01:34;64.93;;;9.55;;
56242;SDS011;42155;53.096;23.226;2022-08-24T08:03:34;61.47;;;9.50;;
56242;SDS011;42155;53.096;23.226;2022-08-24T08:05:37;60.92;;;8.52;;
56242;SDS011;42155;53.096;23.226;2022-08-24T08:07:38;68.88;;;10.20;;
56242;SDS011;42155;53.096;23.226;2022-08-24T08:09:38;65.65;;;9.43;;
56242;SDS011;42155;53.096;23.226;2022-08-24T08:11:38;55.50;;;8.85;;
56242;SDS011;42155;53.096;23.226;2022-08-24T08:13:39;58.60;;;8.82;;
56242;SDS011;42155;53.096;23.226;2022-08-24T08:15:39;63.97;;;8.48;;
56242;SDS011;42155;53.096;23.226;2022-08-24T08:17:40;78.38;;;9.85;;
56242;SDS011;42155;53.096;23.226;2022-08-24T08:19:40;73.53;;;10.30;;
56242;SDS011;42155;53.096;23.226;2022-08-24T08:21:46;61.90;;;11.30;;
56242;SDS011;42155;53.096;23.226;2022-08-24T08:23:49;68.43;;;9.00;;
56242;SDS011;42155;53.096;23.226;2022-08-24T08:25:50;64.97;;;9.23;;
56242;SDS011;42155;53.096;23.226;2022-08-24T08:27:52;80.47;;;11.02;;
56242;SDS011;42155;53.096;23.226;2022-08-24T08:29:52;58.90;;;8.38;;
56242;SDS011;42155;53.096;23.226;2022-08-24T08:31:53;72.05;;;9.32;;
56242;SDS011;42155;53.096;23.226;2022-08-24T08:33:53;69.28;;;10.35;;
56242;SDS011;42155;53.096;23.226;2022-08-24T08:40:05;62.38;;;8.90;;
56242;SDS011;42155;53.096;23.226;2022-08-24T08:42:28;69.28;;;10.07;;
56242;SDS011;42155;53.096;23.226;2022-08-24T08:47:19;70.18;;;9.77;;
56242;SDS011;42155;53.096;23.226;2022-08-24T09:01:38;85.82;;;11.57;;
56242;SDS011;42155;53.096;23.226;2022-08-24T09:10:49;70.18;;;9.52;;
56242;SDS011;42155;53.096;23.226;2022-08-24T09:12:58;71.25;;;10.25;;
56242;SDS011;42155;53.096;23.226;2022-08-24T09:15:37;77.00;;;9.90;;
56242;SDS011;42155;53.096;23.226;2022-08-24T09:22:26;73.85;;;10.02;;
56242;SDS011;42155;53.096;23.226;2022-08-24T09:26:37;66.32;;;10.30;;
56242;SDS011;42155;53.096;23.226;2022-08-24T09:33:21;82.43;;;11.50;;
56242;SDS011;42155;53.096;23.226;2022-08-24T09:35:30;96.65;;;10.88;;
56242;SDS011;42155;53.096;23.226;2022-08-24T09:40:15;86.97;;;11.75;;
56242;SDS011;42155;53.096;23.226;2022-08-24T09:54:29;77.80;;;10.15;;
56242;SDS011;42155;53.096;23.226;2022-08-24T10:01:35;89.45;;;11.98;;
56242;SDS011;42155;53.096;23.226;2022-08-24T10:11:03;82.03;;;11.05;;
56242;SDS011;42155;53.096;23.226;2022-08-24T10:13:29;84.85;;;11.50;;
56242;SDS011;42155;53.096;23.226;2022-08-24T10:18:21;87.07;;;11.50;;
56242;SDS011;42155;53.096;23.226;2022-08-24T10:34:35;88.88;;;10.98;;
56242;SDS011;42155;53.096;23.226;2022-08-24T10:42:04;84.55;;;11.70;;
56242;SDS011;42155;53.096;23.226;2022-08-24T10:44:21;80.95;;;11.02;;
56242;SDS011;42155;53.096;23.226;2022-08-24T10:49:30;74.00;;;9.77;;
56242;SDS011;42155;53.096;23.226;2022-08-24T10:51:46;82.68;;;10.20;;
56242;SDS011;42155;53.096;23.226;2022-08-24T10:53:52;68.30;;;9.50;;
56242;SDS011;42155;53.096;23.226;2022-08-24T11:00:31;77.80;;;10.38;;
56242;SDS011;42155;53.096;23.226;2022-08-24T11:02:33;73.05;;;11.10;;
56242;SDS011;42155;53.096;23.226;2022-08-24T11:04:35;72.60;;;9.70;;
56242;SDS011;42155;53.096;23.226;2022-08-24T11:06:39;86.13;;;10.45;;
56242;SDS011;42155;53.096;23.226;2022-08-24T11:11:22;81.75;;;11.10;;
56242;SDS011;42155;53.096;23.226;2022-08-24T11:13:24;79.72;;;10.15;;
56242;SDS011;42155;53.096;23.226;2022-08-24T11:15:26;80.88;;;10.90;;
56242;SDS011;42155;53.096;23.226;2022-08-24T11:17:28;77.97;;;10.35;;
56242;SDS011;42155;53.096;23.226;2022-08-24T11:19:30;79.53;;;11.10;;
56242;SDS011;42155;53.096;23.226;2022-08-24T11:23:38;70.93;;;9.63;;
56242;SDS011;42155;53.096;23.226;2022-08-24T11:25:50;82.68;;;11.20;;
56242;SDS011;42155;53.096;23.226;2022-08-24T11:27:51;78.20;;;8.90;;
56242;SDS011;42155;53.096;23.226;2022-08-24T11:30:00;71.45;;;9.90;;
56242;SDS011;42155;53.096;23.226;2022-08-24T11:32:23;80.68;;;9.82;;
56242;SDS011;42155;53.096;23.226;2022-08-24T11:34:35;84.45;;;10.00;;
56242;SDS011;42155;53.096;23.226;2022-08-24T11:36:37;79.13;;;10.82;;
56242;SDS011;42155;53.096;23.226;2022-08-24T11:38:38;77.35;;;10.13;;
56242;SDS011;42155;53.096;23.226;2022-08-24T11:40:39;83.53;;;11.32;;
56242;SDS011;42155;53.096;23.226;2022-08-24T11:45:29;58.83;;;8.00;;
56242;SDS011;42155;53.096;23.226;2022-08-24T11:50:16;75.63;;;9.30;;
56242;SDS011;42155;53.096;23.226;2022-08-24T11:55:03;65.28;;;9.18;;
56242;SDS011;42155;53.096;23.226;2022-08-24T11:57:15;93.75;;;10.05;;
56242;SDS011;42155;53.096;23.226;2022-08-24T12:01:31;82.07;;;10.23;;
56242;SDS011;42155;53.096;23.226;2022-08-24T12:12:41;69.32;;;8.88;;
56242;SDS011;42155;53.096;23.226;2022-08-24T12:14:56;76.00;;;10.35;;
56242;SDS011;42155;53.096;23.226;2022-08-24T12:17:03;87.95;;;10.02;;
56242;SDS011;42155;53.096;23.226;2022-08-24T12:19:19;65.28;;;10.13;;
56242;SDS011;42155;53.096;23.226;2022-08-24T12:21:26;71.20;;;10.25;;
56242;SDS011;42155;53.096;23.226;2022-08-24T12:23:35;65.32;;;8.60;;
56242;SDS011;42155;53.096;23.226;2022-08-24T12:25:39;72.85;;;10.25;;
56242;SDS011;42155;53.096;23.226;2022-08-24T12:27:41;75.97;;;10.75;;
56242;SDS011;42155;53.096;23.226;2022-08-24T12:29:43;77.28;;;10.57;;
56242;SDS011;42155;53.096;23.226;2022-08-24T12:31:56;76.97;;;10.07;;
56242;SDS011;42155;53.096;23.226;2022-08-24T12:34:00;70.45;;;9.18;;
56242;SDS011;42155;53.096;23.226;2022-08-24T12:36:12;59.00;;;8.80;;
56242;SDS011;42155;53.096;23.226;2022-08-24T12:38:25;61.95;;;8.27;;
56242;SDS011;42155;53.096;23.226;2022-08-24T12:40:32;69.78;;;9.45;;
56242;SDS011;42155;53.096;23.226;2022-08-24T12:42:42;73.47;;;9.35;;
56242;SDS011;42155;53.096;23.226;2022-08-24T12:45:21;62.53;;;8.55;;
56242;SDS011;42155;53.096;23.226;2022-08-24T12:47:20;79.28;;;10.35;;
56242;SDS011;42155;53.096;23.226;2022-08-24T12:49:41;80.60;;;10.27;;
56242;SDS011;42155;53.096;23.226;2022-08-24T12:56:48;74.97;;;9.88;;
56242;SDS011;42155;53.096;23.226;2022-08-24T13:00:53;67.30;;;9.02;;
56242;SDS011;42155;53.096;23.226;2022-08-24T13:03:00;68.13;;;9.38;;
56242;SDS011;42155;53.096;23.226;2022-08-24T13:05:11;65.00;;;8.70;;
56242;SDS011;42155;53.096;23.226;2022-08-24T13:09:32;77.03;;;9.15;;
56242;SDS011;42155;53.096;23.226;2022-08-24T13:11:38;65.72;;;10.18;;
56242;SDS011;42155;53.096;23.226;2022-08-24T13:15:58;59.95;;;8.18;;
56242;SDS011;42155;53.096;23.226;2022-08-24T13:22:35;63.67;;;8.38;;
56242;SDS011;42155;53.096;23.226;2022-08-24T13:24:44;69.15;;;8.48;;
56242;SDS011;42155;53.096;23.226;2022-08-24T13:26:46;60.63;;;8.15;;
56242;SDS011;42155;53.096;23.226;2022-08-24T13:28:47;60.72;;;8.48;;
56242;SDS011;42155;53.096;23.226;2022-08-24T13:33:10;69.15;;;8.77;;
56242;SDS011;42155;53.096;23.226;2022-08-24T13:40:32;57.95;;;7.10;;
56242;SDS011;42155;53.096;23.226;2022-08-24T13:54:01;65.05;;;8.80;;
56242;SDS011;42155;53.096;23.226;2022-08-24T13:58:34;67.05;;;7.80;;
56242;SDS011;42155;53.096;23.226;2022-08-24T14:09:24;51.30;;;6.95;;
56242;SDS011;42155;53.096;23.226;2022-08-24T14:11:52;55.58;;;7.82;;
56242;SDS011;42155;53.096;23.226;2022-08-24T14:21:38;54.03;;;7.93;;
56242;SDS011;42155;53.096;23.226;2022-08-24T14:23:48;71.63;;;7.75;;
56242;SDS011;42155;53.096;23.226;2022-08-24T14:28:36;66.93;;;8.10;;
56242;SDS011;42155;53.096;23.226;2022-08-24T14:30:42;48.30;;;6.97;;
56242;SDS011;42155;53.096;23.226;2022-08-24T14:35:02;51.13;;;6.93;;
56242;SDS011;42155;53.096;23.226;2022-08-24T14:39:20;47.73;;;7.77;;
56242;SDS011;42155;53.096;23.226;2022-08-24T14:41:51;45.15;;;6.40;;
56242;SDS011;42155;53.096;23.226;2022-08-24T14:46:07;63.42;;;7.38;;
56242;SDS011;42155;53.096;23.226;2022-08-24T14:53:30;59.88;;;8.52;;
56242;SDS011;42155;53.096;23.226;2022-08-24T14:55:55;62.75;;;8.15;;
56242;SDS011;42155;53.096;23.226;2022-08-24T15:00:46;60.93;;;8.37;;
56242;SDS011;42155;53.096;23.226;2022-08-24T15:08:10;62.10;;;8.00;;
56242;SDS011;42155;53.096;23.226;2022-08-24T15:10:48;56.15;;;8.07;;
56242;SDS011;42155;53.096;23.226;2022-08-24T15:12:59;58.50;;;6.75;;
56242;SDS011;42155;53.096;23.226;2022-08-24T15:17:11;49.72;;;8.18;;
56242;SDS011;42155;53.096;23.226;2022-08-24T15:21:28;63.22;;;8.55;;
56242;SDS011;42155;53.096;23.226;2022-08-24T15:23:43;44.40;;;6.18;;